Time;durP1;ratioP1;P1;durP2;ratioP2;P2;SDS_P1;SDS_P2;PMS_P1;PMS_P2;Temp;Humidity;BMP_temperature;BMP_pressure;BME280_temperature;BME280_humidity;BME280_pressure;Samples;Min_cycle;Max_cycle;Signal;HPM_P1;HPM_P2
2023/03/31 00:01:03;;;;;;;57.72;8.38;;;;;;;11.70;100.00;99078.00;5078683;28;20023;-78
2023/03/31 00:03:28;;;;;;;45.33;8.02;;;;;;;11.63;100.00;99062.66;5101410;27;20046;-78
2023/03/31 00:05:57;;;;;;;59.83;8.57;;;;;;;11.67;100.00;99065.56;5101263;27;20643;-77
2023/03/31 00:08:24;;;;;;;55.60;8.80;;;;;;;11.61;100.00;99070.50;5063974;28;20476;-78
2023/03/31 00:10:49;;;;;;;57.35;8.80;;;;;;;11.61;100.00;99064.94;5097526;28;20031;-78
2023/03/31 00:13:15;;;;;;;64.55;9.32;;;;;;;11.60;100.00;99059.75;5109164;27;20038;-78
2023/03/31 00:15:40;;;;;;;56.08;9.18;;;;;;;11.61;100.00;99053.84;5078171;27;20057;-78
2023/03/31 00:18:06;;;;;;;49.67;8.32;;;;;;;11.58;100.00;99053.69;5084014;27;20023;-78
2023/03/31 00:20:36;;;;;;;64.57;10.38;;;;;;;11.58;100.00;99042.56;5099051;27;20032;-78
2023/03/31 00:23:02;;;;;;;60.50;9.80;;;;;;;11.55;100.00;99054.38;5087596;28;20035;-78
2023/03/31 00:25:28;;;;;;;59.20;8.60;;;;;;;11.54;100.00;99041.63;5099951;27;20031;-78
2023/03/31 00:27:53;;;;;;;57.15;8.88;;;;;;;11.56;100.00;99053.22;5080194;28;20016;-77
2023/03/31 00:30:19;;;;;;;58.92;9.30;;;;;;;11.54;100.00;99036.06;5096484;27;20031;-78
2023/03/31 00:32:45;;;;;;;60.65;9.63;;;;;;;11.58;100.00;99056.47;5090364;28;20034;-78
2023/03/31 00:35:10;;;;;;;59.38;9.85;;;;;;;11.54;100.00;99059.13;5078840;27;20028;-78
2023/03/31 00:37:36;;;;;;;61.97;9.63;;;;;;;11.53;100.00;99051.09;5063931;28;20024;-78
2023/03/31 00:40:05;;;;;;;54.65;8.60;;;;;;;11.51;100.00;99048.69;5096959;28;20028;-78
2023/03/31 00:42:30;;;;;;;70.03;9.90;;;;;;;11.54;100.00;99041.63;5094868;28;20040;-78
2023/03/31 00:45:15;;;;;;;57.90;7.97;;;;;;;11.51;100.00;99025.63;5100503;28;20062;-78
2023/03/31 00:47:54;;;;;;;59.60;9.23;;;;;;;11.51;100.00;99014.50;5106821;28;20119;-78
2023/03/31 00:50:30;;;;;;;63.45;9.50;;;;;;;11.47;100.00;99025.47;5090188;28;20042;-78
2023/03/31 00:52:58;;;;;;;56.95;8.68;;;;;;;11.47;100.00;99019.09;5131941;28;20027;-78
2023/03/31 00:55:37;;;;;;;59.92;9.80;;;;;;;11.42;100.00;99020.09;5080181;28;20586;-78
2023/03/31 00:58:03;;;;;;;54.50;9.68;;;;;;;11.47;100.00;98985.75;5093708;28;20020;-77
2023/03/31 01:00:29;;;;;;;49.88;9.02;;;;;;;11.43;100.00;98979.22;5110295;28;20043;-77
2023/03/31 01:03:00;;;;;;;59.47;9.60;;;;;;;11.44;100.00;98972.50;5082581;27;20055;-78
2023/03/31 01:05:35;;;;;;;64.25;10.57;;;;;;;11.41;100.00;98976.78;5084656;28;20558;-77
2023/03/31 01:08:01;;;;;;;66.15;9.50;;;;;;;11.41;100.00;98979.56;5093595;28;20020;-78
2023/03/31 01:10:27;;;;;;;59.58;10.32;;;;;;;11.39;100.00;98979.91;5086348;27;20423;-79
2023/03/31 01:12:53;;;;;;;63.05;9.73;;;;;;;11.35;100.00;98967.81;5087455;27;20027;-78
2023/03/31 01:15:18;;;;;;;64.07;10.40;;;;;;;11.36;100.00;98986.13;5081219;27;20130;-78
2023/03/31 01:17:44;;;;;;;61.40;10.00;;;;;;;11.37;100.00;98982.22;5104063;27;20111;-78
2023/03/31 01:20:37;;;;;;;55.00;8.68;;;;;;;11.36;100.00;98991.69;5103127;27;20539;-78
2023/03/31 01:23:34;;;;;;;56.72;9.88;;;;;;;11.37;100.00;98995.28;5103372;28;20036;-78
2023/03/31 01:26:21;;;;;;;52.25;8.05;;;;;;;11.36;100.00;98975.00;5104203;27;20031;-78
2023/03/31 01:28:51;;;;;;;60.55;9.20;;;;;;;11.37;100.00;98978.63;5107017;27;20030;-79
2023/03/31 01:31:22;;;;;;;61.30;9.68;;;;;;;11.35;100.00;98967.81;5139522;27;20122;-78
2023/03/31 01:33:54;;;;;;;62.50;9.65;;;;;;;11.32;100.00;98962.94;5107536;27;20030;-78
2023/03/31 01:36:31;;;;;;;64.20;10.05;;;;;;;11.31;100.00;98960.47;5121195;27;20034;-78
2023/03/31 01:39:23;;;;;;;60.67;9.18;;;;;;;11.28;100.00;98967.56;5109048;27;20099;-78
2023/03/31 01:41:55;;;;;;;48.25;8.82;;;;;;;11.29;100.00;98969.19;5092433;27;20035;-78
2023/03/31 01:44:44;;;;;;;58.13;8.53;;;;;;;11.25;100.00;98943.19;5139186;27;20075;-78
2023/03/31 01:47:17;;;;;;;46.10;7.70;;;;;;;11.26;100.00;98942.06;5092297;27;20035;-78
2023/03/31 01:50:01;;;;;;;43.47;7.70;;;;;;;11.23;100.00;98926.06;5104309;27;20043;-78
2023/03/31 01:52:56;;;;;;;41.47;7.85;;;;;;;11.22;100.00;98932.75;5086702;27;20033;-78
2023/03/31 01:55:59;;;;;;;47.17;7.90;;;;;;;11.16;100.00;98925.75;5113107;27;20039;-78
2023/03/31 01:58:42;;;;;;;44.55;8.63;;;;;;;11.14;100.00;98922.50;5098059;27;20031;-78
2023/03/31 02:01:15;;;;;;;;;;;;;;;11.15;100.00;98918.59;5089028;27;20047;-78
2023/03/31 02:03:45;;;;;;;44.50;8.32;;;;;;;11.14;100.00;98906.69;5118661;27;19907;-78
2023/03/31 02:06:14;;;;;;;48.13;8.32;;;;;;;11.13;100.00;98904.22;5080613;28;20807;-78
2023/03/31 02:08:42;;;;;;;55.22;8.18;;;;;;;11.12;100.00;98905.38;5096884;27;20030;-78
2023/03/31 02:11:07;;;;;;;59.03;9.73;;;;;;;11.11;100.00;98918.44;5103353;27;20528;-78
2023/03/31 02:13:33;;;;;;;60.08;9.40;;;;;;;11.08;100.00;98929.41;5099852;28;20061;-78
2023/03/31 02:16:01;;;;;;;56.45;8.63;;;;;;;11.06;100.00;98938.09;5082032;28;20032;-78
2023/03/31 02:18:29;;;;;;;51.80;9.32;;;;;;;11.04;100.00;98920.13;5063996;27;20390;-77
2023/03/31 02:20:56;;;;;;;54.47;8.60;;;;;;;11.02;100.00;98922.44;5103592;27;20114;-78
2023/03/31 02:23:25;;;;;;;52.70;8.57;;;;;;;11.02;100.00;98926.00;5096293;27;20030;-78
2023/03/31 02:25:52;;;;;;;55.45;9.25;;;;;;;10.98;100.00;98927.84;5066341;28;20099;-78
2023/03/31 02:28:20;;;;;;;55.78;9.07;;;;;;;10.94;100.00;98929.66;5098389;27;20019;-78
2023/03/31 02:30:57;;;;;;;47.92;8.27;;;;;;;10.90;100.00;98923.16;5102059;27;20023;-78
2023/03/31 02:33:23;;;;;;;50.22;8.13;;;;;;;10.85;100.00;98896.38;5107069;27;20024;-78
2023/03/31 02:35:48;;;;;;;50.50;8.07;;;;;;;10.82;100.00;98888.72;5102973;27;20027;-78
2023/03/31 02:38:14;;;;;;;50.97;8.68;;;;;;;10.82;100.00;98883.16;5102809;27;20026;-77
2023/03/31 02:40:40;;;;;;;54.13;8.30;;;;;;;10.81;100.00;98881.53;5086090;27;20028;-78
2023/03/31 02:43:05;;;;;;;48.55;7.35;;;;;;;10.79;100.00;98883.84;5085367;27;20039;-78
2023/03/31 02:45:43;;;;;;;61.63;10.07;;;;;;;10.76;100.00;98878.16;5102420;27;20113;-77
2023/03/31 02:48:19;;;;;;;48.90;7.95;;;;;;;10.72;100.00;98862.13;5097110;28;20063;-78
2023/03/31 02:51:09;;;;;;;49.47;8.07;;;;;;;10.71;100.00;98871.63;5093280;28;20076;-78
2023/03/31 02:53:59;;;;;;;66.13;9.10;;;;;;;10.68;100.00;98860.38;5091380;28;20035;-77
2023/03/31 02:56:59;;;;;;;52.10;7.43;;;;;;;10.70;100.00;98864.44;5099011;28;20024;-77
2023/03/31 03:00:00;;;;;;;58.38;8.38;;;;;;;10.64;100.00;98854.69;5095396;28;20084;-78
2023/03/31 03:02:30;;;;;;;47.83;6.90;;;;;;;10.64;100.00;98851.06;5069663;28;20089;-78
2023/03/31 03:05:12;;;;;;;67.80;8.75;;;;;;;10.61;100.00;98873.94;5098962;28;20028;-77
2023/03/31 03:07:37;;;;;;;42.42;7.57;;;;;;;10.56;100.00;98871.34;5098887;28;20488;-78
2023/03/31 03:10:08;;;;;;;49.42;8.15;;;;;;;10.55;100.00;98861.41;5080129;28;20028;-77
2023/03/31 03:12:55;;;;;;;51.90;8.40;;;;;;;10.53;100.00;98856.22;5061886;28;20112;-77
2023/03/31 03:15:29;;;;;;;57.55;7.80;;;;;;;10.54;100.00;98876.44;5076966;28;20023;-77
2023/03/31 03:17:55;;;;;;;55.65;8.45;;;;;;;10.52;100.00;98860.13;5078521;28;20051;-77
2023/03/31 03:20:20;;;;;;;50.85;7.65;;;;;;;10.51;100.00;98853.75;5078342;28;20545;-78
2023/03/31 03:22:46;;;;;;;51.65;7.50;;;;;;;10.49;100.00;98871.91;5095135;28;20028;-78
2023/03/31 03:25:12;;;;;;;39.03;6.22;;;;;;;10.48;100.00;98879.41;5075262;28;20039;-77
2023/03/31 03:27:38;;;;;;;56.03;7.32;;;;;;;10.44;100.00;98878.44;5070851;28;20023;-77
2023/03/31 03:30:05;;;;;;;48.28;7.45;;;;;;;10.45;100.00;98871.75;5064485;28;20369;-77
2023/03/31 03:32:32;;;;;;;46.72;6.85;;;;;;;10.45;100.00;98852.31;5073285;28;20089;-77
2023/03/31 03:35:00;;;;;;;46.67;6.55;;;;;;;10.41;100.00;98840.25;5060129;28;20020;-78
2023/03/31 03:37:26;;;;;;;42.67;6.57;;;;;;;10.42;100.00;98855.78;5048675;28;20023;-77
2023/03/31 03:39:51;;;;;;;36.65;6.03;;;;;;;10.39;100.00;98858.38;5064248;28;20384;-77
2023/03/31 03:42:17;;;;;;;43.97;6.85;;;;;;;10.39;100.00;98853.66;5085290;28;20495;-77
2023/03/31 03:44:42;;;;;;;46.17;6.68;;;;;;;10.41;100.00;98853.31;5075699;28;20040;-77
2023/03/31 03:47:08;;;;;;;42.28;6.68;;;;;;;10.39;100.00;98841.72;5080926;27;20549;-77
2023/03/31 03:49:40;;;;;;;50.40;6.93;;;;;;;10.38;100.00;98826.22;5072261;27;21085;-78
2023/03/31 03:52:06;;;;;;;43.55;6.05;;;;;;;10.41;100.00;98834.69;5037375;28;20037;-77
2023/03/31 03:54:31;;;;;;;31.23;5.55;;;;;;;10.41;100.00;98854.13;5066889;28;20056;-77
2023/03/31 03:56:57;;;;;;;39.50;6.97;;;;;;;10.42;100.00;98827.19;5021587;28;20542;-77
2023/03/31 03:59:22;;;;;;;43.47;6.85;;;;;;;10.42;100.00;98816.91;5036837;28;20032;-77
2023/03/31 04:01:48;;;;;;;38.50;6.00;;;;;;;10.42;100.00;98832.72;5054587;28;20039;-77
2023/03/31 04:04:13;;;;;;;42.72;6.32;;;;;;;10.44;100.00;98831.25;5053461;28;20098;-77
2023/03/31 04:06:39;;;;;;;45.92;6.47;;;;;;;10.41;100.00;98828.34;5061217;28;20060;-77
2023/03/31 04:09:04;;;;;;;37.92;6.30;;;;;;;10.42;100.00;98828.03;5049530;28;20029;-78
2023/03/31 04:11:30;;;;;;;36.47;5.88;;;;;;;10.42;100.00;98828.03;5037922;28;20025;-77
2023/03/31 04:13:55;;;;;;;38.58;5.55;;;;;;;10.43;100.00;98831.59;5057212;28;20029;-77
2023/03/31 04:16:22;;;;;;;35.90;6.13;;;;;;;10.41;100.00;98820.00;5037604;28;20043;-77
2023/03/31 04:18:47;;;;;;;41.28;6.45;;;;;;;10.37;100.00;98844.03;5054102;28;20404;-77
2023/03/31 04:21:21;;;;;;;47.10;6.65;;;;;;;10.36;100.00;98848.75;5037599;28;20028;-78
2023/03/31 04:23:47;;;;;;;37.33;6.70;;;;;;;10.40;100.00;98857.25;5039777;28;20047;-78
2023/03/31 04:26:13;;;;;;;38.08;6.50;;;;;;;10.41;100.00;98856.91;5058365;28;20029;-79
2023/03/31 04:28:41;;;;;;;36.78;6.22;;;;;;;10.40;100.00;98860.03;5031373;28;20052;-78
2023/03/31 04:31:14;;;;;;;36.78;5.53;;;;;;;10.42;100.00;98861.31;5043181;28;20474;-78
2023/03/31 04:33:40;;;;;;;39.03;5.88;;;;;;;10.42;100.00;98861.31;5050860;28;20044;-78
2023/03/31 04:36:18;;;;;;;42.20;6.95;;;;;;;10.41;100.00;98861.63;5078447;28;20028;-78
2023/03/31 04:38:49;;;;;;;36.58;5.93;;;;;;;10.39;100.00;98856.44;5036976;28;20021;-79
2023/03/31 04:41:15;;;;;;;36.13;5.85;;;;;;;10.38;100.00;98857.56;5055165;28;20063;-79
2023/03/31 04:43:41;;;;;;;44.13;6.45;;;;;;;10.40;100.00;98826.72;5017022;28;20033;-78
2023/03/31 04:46:06;;;;;;;38.72;6.05;;;;;;;10.40;100.00;98852.50;5034215;28;20029;-78
2023/03/31 04:48:32;;;;;;;35.55;6.35;;;;;;;10.40;100.00;98846.97;5033446;28;20049;-78
2023/03/31 04:50:57;;;;;;;39.88;6.13;;;;;;;10.39;100.00;98859.22;5039525;28;20033;-78
2023/03/31 04:53:23;;;;;;;38.50;5.57;;;;;;;10.40;100.00;98866.38;5049584;28;20039;-78
2023/03/31 04:55:49;;;;;;;38.25;5.97;;;;;;;10.39;100.00;98881.41;5034436;28;20029;-79
2023/03/31 04:58:14;;;;;;;37.25;6.10;;;;;;;10.38;100.00;98877.00;5033123;28;20436;-78
2023/03/31 05:00:40;;;;;;;38.90;6.35;;;;;;;10.39;100.00;98869.47;5034074;28;20112;-78
2023/03/31 05:03:05;;;;;;;32.45;5.15;;;;;;;10.39;100.00;98873.09;5027432;28;20068;-78
2023/03/31 05:05:31;;;;;;;30.77;5.18;;;;;;;10.35;100.00;98862.97;5040080;28;20025;-78
2023/03/31 05:07:57;;;;;;;29.60;5.80;;;;;;;10.27;100.00;98859.88;5039983;28;20096;-78
2023/03/31 05:10:22;;;;;;;30.65;4.72;;;;;;;10.27;100.00;98853.53;5037900;28;20079;-78
2023/03/31 05:12:48;;;;;;;35.00;5.05;;;;;;;10.23;100.00;98860.88;5039670;28;20025;-78
2023/03/31 05:15:13;;;;;;;31.23;5.35;;;;;;;10.20;100.00;98873.44;5023331;28;20025;-78
2023/03/31 05:17:39;;;;;;;27.00;5.40;;;;;;;10.14;100.00;98863.69;5036564;28;20056;-78
2023/03/31 05:20:08;;;;;;;32.95;5.40;;;;;;;10.16;100.00;98866.09;5032952;28;20029;-78
2023/03/31 05:22:35;;;;;;;31.90;5.70;;;;;;;10.18;100.00;98874.94;5048769;28;20548;-78
2023/03/31 05:25:00;;;;;;;36.90;5.72;;;;;;;10.20;100.00;98867.09;5038753;28;20033;-77
2023/03/31 05:27:26;;;;;;;35.97;5.80;;;;;;;10.16;100.00;98866.09;5036018;28;20022;-78
2023/03/31 05:29:51;;;;;;;36.92;5.65;;;;;;;10.17;100.00;98862.19;5021794;28;20508;-78
2023/03/31 05:32:17;;;;;;;32.25;6.03;;;;;;;10.17;100.00;98876.06;5033074;28;20037;-78
2023/03/31 05:34:42;;;;;;;30.38;5.47;;;;;;;10.17;100.00;98867.72;5029385;28;20522;-78
2023/03/31 05:37:08;;;;;;;41.10;6.28;;;;;;;10.13;100.00;98872.31;5039216;28;20029;-77
2023/03/31 05:39:33;;;;;;;34.22;5.60;;;;;;;10.12;100.00;98881.81;5030020;28;20036;-77
2023/03/31 05:41:59;;;;;;;47.17;5.70;;;;;;;10.11;100.00;98888.47;5039110;28;20119;-77
2023/03/31 05:44:26;;;;;;;28.17;4.50;;;;;;;10.10;100.00;98887.66;5035693;28;20034;-78
2023/03/31 05:46:52;;;;;;;38.03;5.43;;;;;;;10.06;100.00;98906.13;5019311;28;20033;-77
2023/03/31 05:49:17;;;;;;;41.40;6.45;;;;;;;10.04;100.00;98902.84;5039056;28;20076;-78
2023/03/31 05:51:43;;;;;;;38.75;5.93;;;;;;;10.06;100.00;98906.94;5022521;28;20029;-77
2023/03/31 05:54:08;;;;;;;34.90;5.40;;;;;;;10.02;100.00;98900.41;5019005;28;20048;-78
2023/03/31 05:56:34;;;;;;;35.58;5.82;;;;;;;10.04;100.00;98902.84;5038876;28;20037;-77
2023/03/31 05:59:00;;;;;;;32.13;5.28;;;;;;;10.04;100.00;98895.34;5035020;28;20032;-78
2023/03/31 06:01:25;;;;;;;39.58;5.93;;;;;;;10.03;100.00;98913.16;5035511;28;20036;-77
2023/03/31 06:03:51;;;;;;;35.38;5.25;;;;;;;10.03;100.00;98918.69;5013663;28;20033;-78
2023/03/31 06:06:17;;;;;;;37.95;6.20;;;;;;;10.01;100.00;98914.63;5038808;28;20029;-77
2023/03/31 06:08:43;;;;;;;40.30;5.93;;;;;;;10.02;100.00;98902.38;5038816;28;20029;-77
2023/03/31 06:11:10;;;;;;;28.25;5.45;;;;;;;9.99;100.00;98914.94;5017807;28;20040;-78
2023/03/31 06:13:36;;;;;;;34.13;4.78;;;;;;;10.00;100.00;98913.81;5035695;28;20525;-78
2023/03/31 06:16:02;;;;;;;30.90;4.95;;;;;;;10.00;100.00;98918.50;5035611;28;20029;-77
2023/03/31 06:18:28;;;;;;;33.88;6.13;;;;;;;9.99;100.00;98912.16;5035761;28;20710;-78
2023/03/31 06:20:54;;;;;;;27.55;5.40;;;;;;;10.00;100.00;98910.19;5038709;28;20056;-78
2023/03/31 06:23:20;;;;;;;30.80;4.68;;;;;;;9.99;100.00;98931.56;5019615;28;20029;-77
2023/03/31 06:25:46;;;;;;;25.90;4.72;;;;;;;10.01;100.00;98932.06;5035085;28;20032;-77
2023/03/31 06:28:11;;;;;;;37.30;5.95;;;;;;;9.99;100.00;98931.56;5036014;28;20036;-77
2023/03/31 06:30:37;;;;;;;27.80;4.60;;;;;;;9.97;100.00;98933.88;5019803;28;20033;-77
2023/03/31 06:33:02;;;;;;;32.60;4.88;;;;;;;9.99;100.00;98934.34;5009316;28;20034;-77
2023/03/31 06:35:28;;;;;;;35.67;5.18;;;;;;;10.00;100.00;98936.00;5037478;28;20063;-77
2023/03/31 06:37:53;;;;;;;33.42;4.68;;;;;;;10.00;100.00;98930.44;5071380;28;20021;-77
2023/03/31 06:40:19;;;;;;;35.95;5.25;;;;;;;10.02;100.00;98944.78;5038221;28;20116;-77
2023/03/31 06:42:44;;;;;;;33.42;5.53;;;;;;;10.03;100.00;98946.44;5025327;28;20036;-77
2023/03/31 06:45:10;;;;;;;27.92;5.20;;;;;;;10.04;100.00;98948.03;5037298;28;20029;-77
2023/03/31 06:47:37;;;;;;;31.98;5.13;;;;;;;10.04;100.00;98934.19;5018183;28;20045;-77
2023/03/31 06:50:04;;;;;;;27.85;4.82;;;;;;;10.07;100.00;98932.72;5066388;28;20036;-77
2023/03/31 06:52:30;;;;;;;35.15;4.65;;;;;;;10.07;100.00;98939.06;5010762;28;20522;-77
2023/03/31 06:54:56;;;;;;;33.30;5.40;;;;;;;10.10;100.00;98956.19;5042987;28;20024;-77
2023/03/31 06:57:21;;;;;;;32.38;4.75;;;;;;;10.11;100.00;98949.50;5017737;28;20026;-77
2023/03/31 06:59:46;;;;;;;23.23;4.50;;;;;;;10.14;100.00;98952.44;5037682;28;20021;-77
2023/03/31 07:02:12;;;;;;;29.90;4.80;;;;;;;10.13;100.00;98950.81;5046091;28;20526;-77
2023/03/31 07:04:37;;;;;;;30.08;5.03;;;;;;;10.16;100.00;98946.56;5018262;28;20030;-77
2023/03/31 07:07:03;;;;;;;28.92;4.93;;;;;;;10.18;100.00;98970.06;5031210;28;20040;-77
2023/03/31 07:09:28;;;;;;;26.30;4.15;;;;;;;10.19;100.00;98965.31;5020639;28;20029;-77
2023/03/31 07:11:54;;;;;;;35.15;4.38;;;;;;;10.22;100.00;98972.97;5068301;28;20579;-77
2023/03/31 07:14:19;;;;;;;31.00;4.97;;;;;;;10.23;100.00;98956.00;5016829;28;20025;-78
2023/03/31 07:16:45;;;;;;;38.88;5.57;;;;;;;10.25;100.00;98969.53;5050530;28;20026;-77
2023/03/31 07:19:10;;;;;;;29.85;5.00;;;;;;;10.25;100.00;98964.84;5037583;28;20021;-77
2023/03/31 07:21:36;;;;;;;28.98;4.78;;;;;;;10.29;100.00;98967.78;5017981;28;20033;-77
2023/03/31 07:24:02;;;;;;;38.53;5.18;;;;;;;10.33;100.00;98965.16;5004613;28;20033;-77
2023/03/31 07:26:28;;;;;;;33.17;4.85;;;;;;;10.33;100.00;98970.72;5034075;28;20021;-77
2023/03/31 07:28:55;;;;;;;27.77;4.65;;;;;;;10.35;100.00;98972.00;5047261;28;20036;-77
2023/03/31 07:31:21;;;;;;;31.60;5.50;;;;;;;10.39;100.00;98963.84;5030471;28;20039;-77
2023/03/31 07:33:46;;;;;;;29.13;4.78;;;;;;;10.40;100.00;98968.25;5020539;28;20433;-78
2023/03/31 07:36:12;;;;;;;31.52;5.05;;;;;;;10.43;100.00;98965.63;5037203;28;20025;-78
2023/03/31 07:38:38;;;;;;;33.90;4.72;;;;;;;10.47;100.00;98955.50;5017658;28;20656;-77
2023/03/31 07:41:03;;;;;;;30.35;5.18;;;;;;;10.54;100.00;98979.16;5036155;28;20501;-77
2023/03/31 07:43:29;;;;;;;34.08;5.38;;;;;;;10.59;100.00;98976.22;5020407;28;20036;-77
2023/03/31 07:45:54;;;;;;;37.03;5.32;;;;;;;10.65;100.00;98978.47;5026424;28;20041;-77
2023/03/31 07:48:20;;;;;;;35.00;5.15;;;;;;;10.70;100.00;98991.38;5033532;28;20066;-77
2023/03/31 07:50:47;;;;;;;32.30;4.68;;;;;;;10.76;100.00;98978.91;5029218;28;20048;-77
2023/03/31 07:53:13;;;;;;;32.35;4.97;;;;;;;10.81;100.00;98977.91;5016749;28;20056;-77
2023/03/31 07:55:39;;;;;;;34.38;5.40;;;;;;;10.88;100.00;98992.09;5017527;28;20029;-77
2023/03/31 07:58:05;;;;;;;38.55;6.05;;;;;;;10.92;100.00;98988.31;5033165;28;20048;-77
2023/03/31 08:00:31;;;;;;;33.55;4.75;;;;;;;10.99;100.00;98989.78;5017234;28;20115;-77
2023/03/31 08:02:56;;;;;;;31.27;5.47;;;;;;;11.03;100.00;98994.34;5035259;28;20029;-77
2023/03/31 08:05:22;;;;;;;34.05;6.43;;;;;;;11.09;100.00;98992.19;5053715;28;20508;-77
2023/03/31 08:07:48;;;;;;;37.55;5.78;;;;;;;11.15;100.00;99004.72;5020585;28;20082;-77
2023/03/31 08:10:21;;;;;;;42.55;6.07;;;;;;;11.20;100.00;99001.75;5020303;28;20025;-77
2023/03/31 08:12:46;;;;;;;;;;;;;;;11.25;100.00;99021.00;5005800;28;20478;-77
2023/03/31 08:15:12;;;;;;;31.40;4.75;;;;;;;11.30;100.00;98995.81;5053378;28;19932;-77
2023/03/31 08:17:38;;;;;;;35.47;6.15;;;;;;;11.34;100.00;99001.53;5033681;28;20029;-77
2023/03/31 08:20:06;;;;;;;36.47;6.38;;;;;;;11.40;100.00;99003.75;5014260;28;20049;-77
2023/03/31 08:22:31;;;;;;;39.22;5.35;;;;;;;11.45;100.00;99016.66;5041134;28;20057;-77
2023/03/31 08:24:57;;;;;;;28.27;5.30;;;;;;;11.50;100.00;99033.13;5053579;28;20063;-77
2023/03/31 08:27:23;;;;;;;31.92;4.93;;;;;;;11.55;100.00;99021.00;5033508;28;20040;-77
2023/03/31 08:29:48;;;;;;;33.22;5.53;;;;;;;11.57;100.00;99027.06;5012411;28;20026;-77
2023/03/31 08:32:14;;;;;;;33.95;4.90;;;;;;;11.58;100.00;99015.56;5030661;28;20112;-78
2023/03/31 08:34:41;;;;;;;30.27;5.25;;;;;;;11.62;100.00;99018.53;5063319;28;20033;-78
2023/03/31 08:37:08;;;;;;;34.97;5.13;;;;;;;11.61;100.00;99036.34;5038346;28;20033;-78
2023/03/31 08:39:36;;;;;;;32.67;4.90;;;;;;;11.60;100.00;99035.53;5050164;28;20043;-78
2023/03/31 08:42:37;;;;;;;28.88;4.60;;;;;;;11.61;100.00;99036.34;5021188;28;20488;-78
2023/03/31 08:45:22;;;;;;;25.67;4.50;;;;;;;11.60;100.00;99046.66;5055413;28;20385;-78
2023/03/31 08:47:51;;;;;;;27.98;4.80;;;;;;;11.61;100.00;99047.47;5035056;28;20199;-78
2023/03/31 08:50:20;;;;;;;28.90;4.95;;;;;;;11.58;100.00;99048.94;5040477;28;20029;-78
2023/03/31 08:53:05;;;;;;;27.80;4.82;;;;;;;11.58;100.00;99042.56;5043437;28;20529;-78
2023/03/31 08:55:51;;;;;;;35.60;5.72;;;;;;;11.57;100.00;99054.84;5056443;28;20072;-78
2023/03/31 08:58:31;;;;;;;28.98;4.60;;;;;;;11.58;100.00;99054.50;5078400;28;20042;-78
2023/03/31 09:01:15;;;;;;;33.38;5.28;;;;;;;11.58;100.00;99053.69;5053588;28;20029;-78
2023/03/31 09:04:14;;;;;;;28.65;4.22;;;;;;;11.58;100.00;99059.25;5056018;28;20037;-78
2023/03/31 09:06:41;;;;;;;26.98;4.40;;;;;;;11.58;100.00;99053.69;5046704;28;20041;-77
2023/03/31 09:09:10;;;;;;;35.13;5.28;;;;;;;11.59;100.00;99058.13;5056473;28;20025;-77
2023/03/31 09:11:46;;;;;;;33.90;5.43;;;;;;;11.61;100.00;99064.16;5020055;28;20097;-77
2023/03/31 09:14:32;;;;;;;32.50;5.20;;;;;;;11.68;100.00;99064.44;5056884;28;20060;-77
2023/03/31 09:17:01;;;;;;;30.65;4.88;;;;;;;11.75;100.00;99061.13;5053901;28;20554;-77
2023/03/31 09:19:30;;;;;;;31.60;4.43;;;;;;;11.83;100.00;99055.50;5041712;28;20028;-77
2023/03/31 09:21:55;;;;;;;33.78;4.80;;;;;;;11.95;100.00;99057.59;5055535;28;20029;-77
2023/03/31 09:24:30;;;;;;;28.15;4.65;;;;;;;12.04;100.00;99065.88;5036375;28;20033;-77
2023/03/31 09:27:05;;;;;;;28.88;4.50;;;;;;;12.15;100.00;99053.19;5019727;28;20051;-77
2023/03/31 09:29:57;;;;;;;27.48;4.43;;;;;;;12.29;100.00;99061.25;5030207;28;20029;-77
2023/03/31 09:32:28;;;;;;;34.95;4.60;;;;;;;12.40;100.00;99070.81;5044801;28;20032;-77
2023/03/31 09:35:00;;;;;;;32.35;4.45;;;;;;;12.50;100.00;99077.91;5037297;28;20513;-77
2023/03/31 09:37:29;;;;;;;25.73;4.00;;;;;;;12.58;100.00;99065.88;5019123;28;20034;-78
2023/03/31 09:39:54;;;;;;;24.88;4.05;;;;;;;12.66;100.00;99073.34;5022602;28;20087;-77
2023/03/31 09:42:20;;;;;;;25.38;4.40;;;;;;;12.74;100.00;99083.56;5040916;28;20029;-77
2023/03/31 09:44:46;;;;;;;28.90;4.07;;;;;;;12.83;100.00;99079.91;5024537;28;20501;-77
2023/03/31 09:47:38;;;;;;;25.30;4.43;;;;;;;12.94;100.00;99075.50;5055855;28;20056;-77
2023/03/31 09:50:06;;;;;;;36.03;5.03;;;;;;;13.02;100.00;99063.44;5044236;28;20537;-77
2023/03/31 09:52:33;;;;;;;30.10;4.85;;;;;;;13.16;100.00;99086.25;5032660;28;20313;-77
2023/03/31 09:55:35;;;;;;;24.45;4.75;;;;;;;13.26;100.00;99071.06;5055589;28;20025;-77
2023/03/31 09:58:01;;;;;;;29.23;4.82;;;;;;;13.36;100.00;99080.94;5048359;28;20037;-77
2023/03/31 10:00:27;;;;;;;33.97;4.25;;;;;;;13.50;100.00;99078.63;5005694;28;20500;-77
2023/03/31 10:02:55;;;;;;;27.00;3.85;;;;;;;13.61;100.00;99060.25;5032927;28;20025;-77
2023/03/31 10:05:30;;;;;;;24.25;3.63;;;;;;;13.76;100.00;99066.28;5022186;28;20116;-77
2023/03/31 10:08:16;;;;;;;27.85;4.13;;;;;;;13.91;100.00;99082.31;5048502;28;20021;-78
2023/03/31 10:10:44;;;;;;;22.27;4.30;;;;;;;14.05;100.00;99073.59;5052731;28;20041;-78
2023/03/31 10:13:09;;;;;;;26.13;3.90;;;;;;;14.17;100.00;99069.94;5022144;28;20112;-78
2023/03/31 10:15:38;;;;;;;27.85;4.53;;;;;;;14.26;100.00;99084.56;5038711;28;20048;-78
2023/03/31 10:18:03;;;;;;;22.88;4.35;;;;;;;14.35;100.00;99076.88;5038603;28;20032;-78
2023/03/31 10:20:39;;;;;;;25.80;4.00;;;;;;;14.45;100.00;99076.34;5018820;28;20067;-77
2023/03/31 10:23:34;;;;;;;23.63;4.40;;;;;;;14.59;100.00;99064.00;5036570;28;20033;-78
2023/03/31 10:26:00;;;;;;;25.05;4.03;;;;;;;14.69;100.00;99080.25;5027694;28;20033;-77
2023/03/31 10:28:25;;;;;;;25.63;3.97;;;;;;;14.77;100.00;99086.88;5034774;28;20048;-78
2023/03/31 10:30:55;;;;;;;23.60;4.18;;;;;;;14.87;100.00;99086.34;5054906;28;20041;-78
2023/03/31 10:33:24;;;;;;;25.45;4.53;;;;;;;14.97;100.00;99085.81;5050163;28;20033;-78
2023/03/31 10:35:55;;;;;;;20.63;3.67;;;;;;;15.05;100.00;99086.84;5035126;28;20443;-78
2023/03/31 10:38:30;;;;;;;17.73;3.35;;;;;;;15.15;100.00;99075.91;5038127;28;20362;-78
2023/03/31 10:40:57;;;;;;;22.40;3.92;;;;;;;15.24;100.00;99077.72;5035012;28;20083;-78
2023/03/31 10:43:32;;;;;;;19.75;3.72;;;;;;;15.35;100.00;99084.41;5017239;28;20025;-78
2023/03/31 10:45:59;;;;;;;19.90;3.45;;;;;;;15.45;100.00;99077.47;5043990;28;20029;-78
2023/03/31 10:48:37;;;;;;;20.25;3.47;;;;;;;15.60;100.00;99090.63;5019072;28;20125;-78
2023/03/31 10:51:12;;;;;;;21.83;3.90;;;;;;;15.70;100.00;99092.91;5020631;28;20079;-79
2023/03/31 10:53:48;;;;;;;18.60;3.72;;;;;;;15.83;100.00;99086.03;5034164;28;20037;-79
2023/03/31 10:56:30;;;;;;;21.80;3.95;;;;;;;15.99;100.00;99080.41;5038279;28;20028;-79
2023/03/31 10:59:12;;;;;;;19.25;3.65;;;;;;;16.14;100.00;99075.94;5047055;28;20474;-79
2023/03/31 11:01:49;;;;;;;22.98;4.03;;;;;;;16.33;100.00;99082.75;5034745;28;20479;-79
2023/03/31 11:04:34;;;;;;;19.67;3.70;;;;;;;16.54;100.00;99097.19;5053341;28;20044;-79
2023/03/31 11:07:06;;;;;;;21.67;3.92;;;;;;;16.75;100.00;99078.00;5054980;28;20092;-80
2023/03/31 11:09:48;;;;;;;17.67;3.75;;;;;;;16.93;100.00;99095.19;5038049;28;20100;-79
2023/03/31 11:12:17;;;;;;;28.50;4.38;;;;;;;17.09;100.00;99102.72;5033972;28;20115;-79
2023/03/31 11:14:52;;;;;;;20.15;3.60;;;;;;;17.22;100.00;99100.53;5037292;28;20052;-79
2023/03/31 11:17:24;;;;;;;17.00;3.47;;;;;;;17.31;100.00;99098.31;5053996;28;20091;-79
2023/03/31 11:19:58;;;;;;;16.98;3.05;;;;;;;17.42;100.00;99074.88;5034940;28;20025;-79
2023/03/31 11:22:33;;;;;;;20.23;3.28;;;;;;;17.55;100.00;99089.53;5070571;28;20021;-79
2023/03/31 11:25:01;;;;;;;19.80;3.67;;;;;;;17.72;100.00;99076.97;5024460;28;20521;-79
2023/03/31 11:27:40;;;;;;;18.17;3.45;;;;;;;17.92;100.00;99102.16;5050535;28;20037;-79
2023/03/31 11:30:23;;;;;;;15.15;3.17;;;;;;;18.13;100.00;99112.91;5030688;28;20046;-80